Time;durP1;ratioP1;P1;durP2;ratioP2;P2;SDS_P1;SDS_P2;PMS_P1;PMS_P2;Temp;Humidity;BMP_temperature;BMP_pressure;BME280_temperature;BME280_humidity;BME280_pressure;Samples;Min_cycle;Max_cycle;Signal;HPM_P1;HPM_P2
2021/07/13 00:02:14;;;;;;;3.50;1.50;;;19.70;99.90;;;;;;5051628;28;20112;-67
2021/07/13 00:04:40;;;;;;;8.35;1.75;;;19.60;99.90;;;;;;5051328;28;20470;-67
2021/07/13 00:07:05;;;;;;;1.35;1.25;;;19.60;99.90;;;;;;5050446;28;20068;-66
2021/07/13 00:09:31;;;;;;;1.85;1.23;;;19.60;99.90;;;;;;5052159;28;20033;-67
2021/07/13 00:11:58;;;;;;;1.38;1.00;;;19.50;99.90;;;;;;5051120;28;20025;-69
2021/07/13 00:14:25;;;;;;;2.85;1.05;;;19.50;99.90;;;;;;5051480;28;20041;-68
2021/07/13 00:16:50;;;;;;;3.63;1.00;;;19.60;99.90;;;;;;5049147;28;20029;-68
2021/07/13 00:19:17;;;;;;;1.48;0.98;;;19.60;99.90;;;;;;5050768;28;20036;-68
2021/07/13 00:21:43;;;;;;;2.08;1.00;;;19.50;99.90;;;;;;5051720;28;20052;-68
2021/07/13 00:24:08;;;;;;;4.20;1.10;;;19.40;99.90;;;;;;5050511;28;20482;-66
2021/07/13 00:26:35;;;;;;;1.60;1.17;;;19.40;99.90;;;;;;5051651;28;20032;-66
2021/07/13 00:29:01;;;;;;;1.63;1.00;;;19.30;99.90;;;;;;5050691;28;20036;-67
2021/07/13 00:31:27;;;;;;;1.85;1.08;;;19.30;99.90;;;;;;5051308;28;20036;-66
2021/07/13 00:33:52;;;;;;;3.28;1.13;;;19.20;99.90;;;;;;5051379;28;20052;-67
2021/07/13 00:36:18;;;;;;;2.80;1.05;;;19.20;99.90;;;;;;5050362;28;20037;-67
2021/07/13 00:38:44;;;;;;;2.13;1.02;;;19.10;99.90;;;;;;5050163;28;20032;-67
2021/07/13 00:41:09;;;;;;;3.53;1.10;;;19.10;99.90;;;;;;5050732;28;20451;-67
2021/07/13 00:43:35;;;;;;;2.25;1.02;;;19.10;99.90;;;;;;5050423;28;20374;-67
2021/07/13 00:46:01;;;;;;;2.45;0.90;;;19.10;99.90;;;;;;5050587;28;20064;-67
2021/07/13 00:48:27;;;;;;;2.70;1.42;;;19.10;99.90;;;;;;5051620;28;20029;-67
2021/07/13 00:50:53;;;;;;;2.65;1.13;;;19.00;99.90;;;;;;5051304;28;20036;-67
2021/07/13 00:53:21;;;;;;;5.07;1.30;;;19.00;99.90;;;;;;5050163;28;20041;-66
2021/07/13 00:55:47;;;;;;;5.32;1.20;;;19.10;99.90;;;;;;5050981;28;20136;-67
2021/07/13 00:58:12;;;;;;;3.20;1.17;;;19.00;99.90;;;;;;5050509;28;20108;-67
2021/07/13 01:00:38;;;;;;;2.55;1.25;;;19.00;99.90;;;;;;5052009;28;20768;-66
2021/07/13 01:03:05;;;;;;;2.83;1.50;;;18.90;99.90;;;;;;5051305;28;20478;-67
2021/07/13 01:05:36;;;;;;;3.08;1.40;;;18.90;99.90;;;;;;5051416;28;20037;-66
2021/07/13 01:08:13;;;;;;;;;;;18.90;99.90;;;;;;5051017;28;20040;-67
2021/07/13 01:10:57;;;;;;;1.50;1.40;;;18.90;99.90;;;;;;5051412;28;19905;-66
2021/07/13 01:14:00;;;;;;;3.63;1.70;;;19.00;99.90;;;;;;5050791;28;20057;-67
2021/07/13 01:16:47;;;;;;;2.63;1.60;;;19.00;99.90;;;;;;5051087;28;20059;-66
2021/07/13 01:19:33;;;;;;;3.10;1.83;;;18.90;99.90;;;;;;5050179;28;20489;-67
2021/07/13 01:22:06;;;;;;;3.30;1.90;;;18.80;99.90;;;;;;5050638;28;20017;-68
2021/07/13 01:25:16;;;;;;;4.93;1.70;;;18.70;99.90;;;;;;5050395;28;20037;-66
2021/07/13 01:28:06;;;;;;;2.65;1.60;;;18.60;99.90;;;;;;5050983;28;20108;-67
2021/07/13 01:30:37;;;;;;;2.35;1.70;;;18.60;99.90;;;;;;5050004;28;20036;-66
2021/07/13 01:33:13;;;;;;;3.38;1.75;;;18.60;99.90;;;;;;5050447;28;20037;-67
2021/07/13 01:35:47;;;;;;;3.72;2.05;;;18.60;99.90;;;;;;5051143;28;20037;-67
2021/07/13 01:38:15;;;;;;;4.35;1.60;;;18.50;99.90;;;;;;5048981;28;20443;-66
2021/07/13 01:40:44;;;;;;;3.38;1.40;;;18.50;99.90;;;;;;5051354;28;20025;-66
2021/07/13 01:43:13;;;;;;;2.78;1.20;;;18.50;99.90;;;;;;5053853;28;20076;-67
2021/07/13 01:45:40;;;;;;;4.00;1.80;;;18.40;99.90;;;;;;5054462;28;20458;-66
2021/07/13 01:48:10;;;;;;;3.35;1.55;;;18.20;99.90;;;;;;5053828;28;20087;-67
2021/07/13 01:50:36;;;;;;;4.45;2.20;;;18.10;99.90;;;;;;5054452;28;20420;-66
2021/07/13 01:53:03;;;;;;;3.95;1.75;;;17.90;99.90;;;;;;5053076;28;20438;-67
2021/07/13 01:55:33;;;;;;;3.67;1.92;;;17.70;99.90;;;;;;5054403;28;20053;-68
2021/07/13 01:58:00;;;;;;;5.78;2.15;;;17.60;99.90;;;;;;5053939;28;20451;-67
2021/07/13 02:00:26;;;;;;;3.65;1.67;;;17.40;99.90;;;;;;5053781;28;20390;-69
2021/07/13 02:02:54;;;;;;;7.82;2.20;;;17.40;99.90;;;;;;5054443;28;20143;-66
2021/07/13 02:05:21;;;;;;;2.15;1.50;;;17.30;99.90;;;;;;5053367;28;20028;-67
2021/07/13 02:07:49;;;;;;;3.53;1.60;;;17.20;99.90;;;;;;5054021;28;20025;-66
2021/07/13 02:10:20;;;;;;;8.82;2.15;;;17.20;99.90;;;;;;5053205;28;20025;-66
2021/07/13 02:12:45;;;;;;;;;;;17.20;99.90;;;;;;5054618;28;20025;-66
2021/07/13 02:15:11;;;;;;;3.40;2.05;;;17.10;99.90;;;;;;5053245;28;19908;-67
2021/07/13 02:17:37;;;;;;;2.53;1.48;;;17.10;99.90;;;;;;5053836;28;20115;-66
2021/07/13 02:20:12;;;;;;;6.45;1.75;;;17.10;99.90;;;;;;5053122;28;20112;-67
2021/07/13 02:22:38;;;;;;;2.88;1.50;;;17.00;99.90;;;;;;5053794;28;20033;-66
2021/07/13 02:25:07;;;;;;;3.33;1.65;;;17.00;99.90;;;;;;5053131;28;20025;-67
2021/07/13 02:27:36;;;;;;;3.30;1.60;;;17.00;99.90;;;;;;5053785;28;20026;-67
2021/07/13 02:30:06;;;;;;;5.32;2.20;;;16.90;99.90;;;;;;5052967;28;20560;-67
2021/07/13 02:33:00;;;;;;;4.00;2.17;;;16.80;99.90;;;;;;5053489;28;20398;-66
2021/07/13 02:35:34;;;;;;;6.10;2.10;;;16.90;99.90;;;;;;5053425;28;20112;-67
2021/07/13 02:38:02;;;;;;;4.38;2.35;;;16.80;99.90;;;;;;5052915;28;20045;-68
2021/07/13 02:40:28;;;;;;;3.42;2.15;;;16.80;99.90;;;;;;5053526;28;20099;-67
2021/07/13 02:42:54;;;;;;;6.28;2.45;;;16.80;99.90;;;;;;5053349;28;20411;-67
2021/07/13 02:45:21;;;;;;;8.27;2.85;;;16.80;99.90;;;;;;5052201;28;20713;-67
2021/07/13 02:47:48;;;;;;;7.30;2.47;;;16.80;99.90;;;;;;5053332;28;20112;-67
2021/07/13 02:50:16;;;;;;;5.50;2.60;;;16.80;99.90;;;;;;5052403;28;20477;-67
2021/07/13 02:52:43;;;;;;;5.72;3.10;;;16.80;99.90;;;;;;5052426;28;20036;-67
2021/07/13 02:55:14;;;;;;;3.55;2.47;;;16.80;99.90;;;;;;5052278;28;20147;-67
2021/07/13 02:57:42;;;;;;;7.03;2.63;;;16.80;99.90;;;;;;5053204;28;20047;-67
2021/07/13 03:00:11;;;;;;;6.97;2.65;;;16.80;99.90;;;;;;5052442;28;20351;-67
2021/07/13 03:02:41;;;;;;;3.20;2.17;;;16.80;99.90;;;;;;5053040;28;20154;-67
2021/07/13 03:05:10;;;;;;;2.90;2.65;;;16.80;99.90;;;;;;5052463;28;20385;-67
2021/07/13 03:07:37;;;;;;;9.88;2.83;;;16.70;99.90;;;;;;5053281;28;20029;-67
2021/07/13 03:10:03;;;;;;;4.70;2.70;;;16.80;99.90;;;;;;5051936;28;20047;-68
2021/07/13 03:12:30;;;;;;;4.40;2.63;;;16.80;99.90;;;;;;5052531;28;20112;-67
2021/07/13 03:14:57;;;;;;;4.00;2.83;;;16.80;99.90;;;;;;5052792;28;20074;-67
2021/07/13 03:17:23;;;;;;;5.00;2.88;;;16.80;99.90;;;;;;5051939;28;20460;-67
2021/07/13 03:19:49;;;;;;;6.95;3.03;;;16.80;99.90;;;;;;5052910;28;20477;-67
2021/07/13 03:22:30;;;;;;;3.55;3.15;;;16.80;99.90;;;;;;5052273;28;20029;-67
2021/07/13 03:25:00;;;;;;;5.05;2.50;;;16.80;99.90;;;;;;5052682;28;20083;-67
2021/07/13 03:27:26;;;;;;;6.57;2.10;;;16.90;99.90;;;;;;5052088;28;20082;-67
2021/07/13 03:29:55;;;;;;;4.32;2.60;;;16.90;99.90;;;;;;5052530;28;20033;-67
2021/07/13 03:32:22;;;;;;;3.50;2.60;;;16.90;99.90;;;;;;5051864;28;20068;-67
2021/07/13 03:34:47;;;;;;;6.15;2.85;;;16.90;99.90;;;;;;5052664;28;20032;-67
2021/07/13 03:37:14;;;;;;;6.80;2.92;;;16.90;99.90;;;;;;5051681;28;20036;-67
2021/07/13 03:39:40;;;;;;;5.95;3.28;;;16.90;99.90;;;;;;5052421;28;20347;-67
2021/07/13 03:42:06;;;;;;;6.53;3.88;;;16.90;99.90;;;;;;5051269;28;20029;-67
2021/07/13 03:44:32;;;;;;;6.82;3.53;;;17.00;99.90;;;;;;5052270;28;20029;-67
2021/07/13 03:46:58;;;;;;;5.63;3.55;;;17.00;99.90;;;;;;5051885;28;20048;-67
2021/07/13 03:49:25;;;;;;;4.40;3.55;;;17.00;99.90;;;;;;5051438;28;20021;-67
2021/07/13 03:51:51;;;;;;;6.50;4.00;;;17.00;99.90;;;;;;5052112;28;20029;-67
2021/07/13 03:54:20;;;;;;;5.38;4.03;;;17.00;99.90;;;;;;5051423;28;20024;-67
2021/07/13 03:56:46;;;;;;;7.25;4.00;;;17.10;99.90;;;;;;5052285;28;20049;-67
2021/07/13 03:59:12;;;;;;;8.20;3.80;;;17.10;99.90;;;;;;5051354;28;20103;-67
2021/07/13 04:01:39;;;;;;;7.30;4.18;;;17.10;99.90;;;;;;5052342;28;20103;-67
2021/07/13 04:04:05;;;;;;;9.93;4.72;;;17.20;99.90;;;;;;5050793;28;20029;-68
2021/07/13 04:06:31;;;;;;;6.50;4.63;;;17.20;99.90;;;;;;5051462;28;20033;-68
2021/07/13 04:08:57;;;;;;;7.82;4.97;;;17.20;99.90;;;;;;5051986;28;20036;-67
2021/07/13 04:11:23;;;;;;;8.13;5.25;;;17.20;99.90;;;;;;5050683;28;20615;-67
2021/07/13 04:13:49;;;;;;;9.02;5.88;;;17.20;99.90;;;;;;5051740;28;20040;-67
2021/07/13 04:16:14;;;;;;;6.47;5.40;;;17.20;99.90;;;;;;5051079;28;20079;-67
2021/07/13 04:18:40;;;;;;;9.68;6.30;;;17.20;99.90;;;;;;5051667;28;20431;-67
2021/07/13 04:21:06;;;;;;;9.73;6.93;;;17.20;99.90;;;;;;5050907;28;20033;-67
2021/07/13 04:23:33;;;;;;;7.32;6.50;;;17.20;99.90;;;;;;5050526;28;20386;-67
2021/07/13 04:25:59;;;;;;;8.30;6.78;;;17.20;99.90;;;;;;5051859;28;20021;-67
2021/07/13 04:28:26;;;;;;;9.88;6.63;;;17.20;99.90;;;;;;5050945;28;20086;-67
2021/07/13 04:30:52;;;;;;;7.85;6.53;;;17.20;99.90;;;;;;5051888;28;20164;-66
2021/07/13 04:33:19;;;;;;;7.88;6.75;;;17.20;99.90;;;;;;5050812;28;20033;-68
2021/07/13 04:35:44;;;;;;;8.00;7.18;;;17.20;99.90;;;;;;5051983;28;20017;-67
2021/07/13 04:38:10;;;;;;;9.10;6.28;;;17.20;99.90;;;;;;5050509;28;20360;-67
2021/07/13 04:40:35;;;;;;;8.50;6.85;;;17.30;99.90;;;;;;5051486;28;20471;-68
2021/07/13 04:43:01;;;;;;;7.22;6.07;;;17.30;99.90;;;;;;5051181;28;20044;-67
2021/07/13 04:45:27;;;;;;;7.90;6.47;;;17.40;99.90;;;;;;5051064;28;20023;-67
2021/07/13 04:47:52;;;;;;;8.55;6.47;;;17.30;99.90;;;;;;5051107;28;20051;-67
2021/07/13 04:50:18;;;;;;;9.98;6.88;;;17.40;99.90;;;;;;5050815;28;20031;-67
2021/07/13 04:52:44;;;;;;;9.00;8.00;;;17.40;99.90;;;;;;5050959;28;20045;-67
2021/07/13 04:55:12;;;;;;;7.93;7.13;;;17.40;99.90;;;;;;5050664;28;20049;-67
2021/07/13 04:57:38;;;;;;;7.57;6.22;;;17.50;99.90;;;;;;5051438;28;20470;-67
2021/07/13 05:00:06;;;;;;;6.25;5.45;;;17.40;99.90;;;;;;5051108;28;20040;-68
2021/07/13 05:02:32;;;;;;;7.38;4.45;;;17.50;99.90;;;;;;5048062;28;20037;-67
2021/07/13 05:04:57;;;;;;;7.13;5.10;;;17.50;99.90;;;;;;5051047;28;20032;-68
2021/07/13 05:07:23;;;;;;;5.03;4.53;;;17.50;99.90;;;;;;5050134;28;20073;-67
2021/07/13 05:09:49;;;;;;;6.45;5.57;;;17.50;99.90;;;;;;5051379;28;20024;-67
2021/07/13 05:12:15;;;;;;;7.43;6.63;;;17.40;99.90;;;;;;5050323;28;20063;-68
2021/07/13 05:14:43;;;;;;;7.80;6.00;;;17.40;99.90;;;;;;5050930;28;20060;-67
2021/07/13 05:17:11;;;;;;;6.72;5.43;;;17.40;99.90;;;;;;5052889;28;20042;-68
2021/07/13 05:19:39;;;;;;;6.18;5.20;;;17.50;99.90;;;;;;5054928;28;20033;-69
2021/07/13 05:22:08;;;;;;;9.85;4.60;;;17.50;99.90;;;;;;5054711;28;20108;-67
2021/07/13 05:24:33;;;;;;;5.40;4.90;;;17.50;99.90;;;;;;5054047;28;20027;-68
2021/07/13 05:26:59;;;;;;;5.45;4.72;;;17.60;99.90;;;;;;5053531;28;20111;-69
2021/07/13 05:29:25;;;;;;;6.95;5.13;;;17.60;99.90;;;;;;5053478;28;20048;-67
2021/07/13 05:31:51;;;;;;;8.82;5.95;;;17.70;99.90;;;;;;5051365;28;20024;-66
2021/07/13 05:34:16;;;;;;;5.88;4.50;;;17.80;99.90;;;;;;5053847;28;20043;-66
2021/07/13 05:36:43;;;;;;;5.60;4.10;;;17.80;99.90;;;;;;5053672;28;20037;-67
2021/07/13 05:39:09;;;;;;;7.60;4.10;;;17.80;99.90;;;;;;5053306;28;20355;-68
2021/07/13 05:41:35;;;;;;;8.02;3.83;;;17.90;99.90;;;;;;5054678;28;20056;-67
2021/07/13 05:44:01;;;;;;;8.70;4.70;;;17.90;99.90;;;;;;5054597;28;20236;-66
2021/07/13 05:46:26;;;;;;;6.57;3.80;;;17.90;99.90;;;;;;5053977;28;20049;-67
2021/07/13 05:48:52;;;;;;;5.82;3.20;;;18.00;99.90;;;;;;5054290;28;20037;-67
2021/07/13 05:51:18;;;;;;;5.15;3.08;;;18.00;99.90;;;;;;5054260;28;20090;-67
2021/07/13 05:53:44;;;;;;;5.32;3.08;;;18.00;99.90;;;;;;5054089;28;20082;-67
2021/07/13 05:56:11;;;;;;;3.10;2.78;;;18.00;99.90;;;;;;5053162;28;20053;-67
2021/07/13 05:58:38;;;;;;;4.25;2.78;;;18.00;99.90;;;;;;5054214;28;20021;-67
2021/07/13 06:01:05;;;;;;;4.53;3.08;;;18.00;99.90;;;;;;5054326;28;20501;-67
2021/07/13 06:03:31;;;;;;;3.90;3.20;;;18.00;99.90;;;;;;5053181;28;20025;-67
2021/07/13 06:05:56;;;;;;;3.72;3.28;;;18.00;99.90;;;;;;5052760;28;20033;-68
2021/07/13 06:08:22;;;;;;;4.30;3.10;;;17.90;99.90;;;;;;5052881;28;20151;-67
2021/07/13 06:10:48;;;;;;;4.95;3.35;;;17.90;99.90;;;;;;5052761;28;20028;-67
2021/07/13 06:13:14;;;;;;;5.13;3.60;;;17.80;99.90;;;;;;5052939;28;20029;-67
2021/07/13 06:15:39;;;;;;;7.63;3.60;;;17.80;99.90;;;;;;5054058;28;20025;-67
2021/07/13 06:18:05;;;;;;;4.47;3.63;;;17.80;99.90;;;;;;5052523;28;20524;-67
2021/07/13 06:20:33;;;;;;;4.50;3.10;;;17.80;99.90;;;;;;5053466;28;20115;-67
2021/07/13 06:22:59;;;;;;;5.45;3.67;;;17.90;99.90;;;;;;5053742;28;20064;-67
2021/07/13 06:25:25;;;;;;;6.10;3.90;;;17.90;99.90;;;;;;5052764;28;20060;-67
2021/07/13 06:27:51;;;;;;;5.50;3.90;;;17.90;99.90;;;;;;5052422;28;20458;-68
2021/07/13 06:30:18;;;;;;;6.53;4.07;;;18.00;99.90;;;;;;5051684;28;20087;-67
2021/07/13 06:32:44;;;;;;;5.40;3.90;;;18.00;99.90;;;;;;5053624;28;20033;-67
2021/07/13 06:35:11;;;;;;;5.07;3.85;;;18.10;99.90;;;;;;5051936;28;20033;-68
2021/07/13 06:37:36;;;;;;;4.18;3.08;;;18.20;99.90;;;;;;5052951;28;20039;-67
2021/07/13 06:40:04;;;;;;;6.35;3.90;;;18.30;99.90;;;;;;5053421;28;20028;-67
2021/07/13 06:42:30;;;;;;;5.20;3.78;;;18.30;99.90;;;;;;5052720;28;20502;-67
2021/07/13 06:44:56;;;;;;;8.80;4.32;;;18.30;99.90;;;;;;5053577;28;20056;-67
2021/07/13 06:47:21;;;;;;;7.30;3.90;;;18.30;99.90;;;;;;5053163;28;20033;-67
2021/07/13 06:49:47;;;;;;;7.07;4.35;;;18.30;99.90;;;;;;5053547;28;20036;-67
2021/07/13 06:52:13;;;;;;;4.43;3.65;;;18.20;99.90;;;;;;5052971;28;20025;-67
2021/07/13 06:54:38;;;;;;;4.88;3.70;;;18.20;99.90;;;;;;5053238;28;20033;-67
2021/07/13 06:57:04;;;;;;;5.15;3.70;;;18.10;99.90;;;;;;5053571;28;20450;-66
2021/07/13 06:59:30;;;;;;;4.47;3.05;;;18.10;99.90;;;;;;5052789;28;20150;-66
2021/07/13 07:01:55;;;;;;;3.63;3.17;;;18.00;99.90;;;;;;5053537;28;20025;-66
2021/07/13 07:04:22;;;;;;;3.25;2.65;;;18.00;99.90;;;;;;5052577;28;20429;-66
2021/07/13 07:06:48;;;;;;;2.83;2.58;;;18.00;99.90;;;;;;5053395;28;20033;-66
2021/07/13 07:09:16;;;;;;;3.58;2.47;;;18.00;99.90;;;;;;5052443;28;20359;-66
2021/07/13 07:11:42;;;;;;;6.35;3.10;;;18.00;99.90;;;;;;5053072;28;20028;-66
2021/07/13 07:14:07;;;;;;;4.03;2.40;;;18.00;99.90;;;;;;5052430;28;20112;-66
2021/07/13 07:16:33;;;;;;;5.78;3.05;;;18.00;99.90;;;;;;5053303;28;20021;-67
2021/07/13 07:18:59;;;;;;;3.25;2.63;;;17.90;99.90;;;;;;5053143;28;20025;-67
2021/07/13 07:21:24;;;;;;;2.72;2.40;;;17.90;99.90;;;;;;5052334;28;20107;-67
2021/07/13 07:23:50;;;;;;;2.75;2.53;;;17.90;99.90;;;;;;5052960;28;20107;-67
2021/07/13 07:26:16;;;;;;;4.50;2.38;;;17.90;99.90;;;;;;5052422;28;20024;-68
2021/07/13 07:28:41;;;;;;;5.57;2.97;;;17.80;99.90;;;;;;5052995;28;20029;-67
2021/07/13 07:31:07;;;;;;;3.63;2.55;;;17.80;99.90;;;;;;5052030;28;20489;-68
2021/07/13 07:33:33;;;;;;;5.20;2.97;;;17.80;99.90;;;;;;5052453;28;20382;-67
2021/07/13 07:35:59;;;;;;;4.20;2.70;;;17.70;99.90;;;;;;5052870;28;20238;-67
2021/07/13 07:38:24;;;;;;;6.82;4.10;;;17.70;99.90;;;;;;5052195;28;20024;-67
2021/07/13 07:40:50;;;;;;;4.70;3.55;;;17.70;99.90;;;;;;5052690;28;20458;-67
2021/07/13 07:43:16;;;;;;;7.35;4.13;;;17.60;99.90;;;;;;5052042;28;20063;-67
2021/07/13 07:45:42;;;;;;;4.43;2.88;;;17.70;99.90;;;;;;5052167;28;20025;-67
2021/07/13 07:48:07;;;;;;;10.18;3.38;;;17.70;99.90;;;;;;5052305;28;20021;-68
2021/07/13 07:50:33;;;;;;;6.53;3.60;;;17.70;99.90;;;;;;5052411;28;20032;-67
2021/07/13 07:52:59;;;;;;;7.72;3.42;;;17.60;99.90;;;;;;5052783;28;20037;-67
2021/07/13 07:55:26;;;;;;;4.28;3.20;;;17.60;99.90;;;;;;5050720;28;20045;-67
2021/07/13 07:57:53;;;;;;;2.83;2.60;;;17.50;99.90;;;;;;5047099;28;20029;-68
2021/07/13 08:00:20;;;;;;;5.18;3.22;;;17.40;99.90;;;;;;5045488;28;20108;-67
2021/07/13 08:02:46;;;;;;;5.25;2.92;;;17.40;99.90;;;;;;5050626;28;20090;-67
2021/07/13 08:05:14;;;;;;;4.65;3.15;;;17.40;99.90;;;;;;5050201;28;20095;-67
2021/07/13 08:07:41;;;;;;;6.93;3.33;;;17.30;99.90;;;;;;5050238;28;20025;-67
2021/07/13 08:10:08;;;;;;;5.32;3.15;;;17.40;99.90;;;;;;5045512;28;20355;-67
2021/07/13 08:12:35;;;;;;;4.50;3.42;;;17.40;99.90;;;;;;5050345;28;20041;-67
2021/07/13 08:15:00;;;;;;;6.28;3.35;;;17.50;99.90;;;;;;5043384;28;20025;-67
2021/07/13 08:17:27;;;;;;;4.20;3.03;;;17.50;99.90;;;;;;5050581;28;20044;-67
2021/07/13 08:19:52;;;;;;;5.00;3.13;;;17.60;99.90;;;;;;5051397;28;20705;-67
2021/07/13 08:22:18;;;;;;;4.13;2.97;;;17.60;99.90;;;;;;5050241;28;20028;-67
2021/07/13 08:24:44;;;;;;;5.03;3.13;;;17.60;99.90;;;;;;5050982;28;20428;-67
2021/07/13 08:27:10;;;;;;;5.95;3.10;;;17.60;99.90;;;;;;5050143;28;20117;-67
2021/07/13 08:29:36;;;;;;;5.38;3.00;;;17.60;99.90;;;;;;5049792;28;20025;-67
2021/07/13 08:32:03;;;;;;;4.38;2.58;;;17.70;99.90;;;;;;5051028;28;20073;-67
2021/07/13 08:34:30;;;;;;;5.80;3.40;;;17.60;99.90;;;;;;5049713;28;20029;-67
2021/07/13 08:36:57;;;;;;;4.45;2.72;;;17.60;99.90;;;;;;5050716;28;20060;-67
2021/07/13 08:39:23;;;;;;;6.50;2.97;;;17.60;99.90;;;;;;5050283;28;20096;-67
2021/07/13 08:41:49;;;;;;;6.30;3.85;;;17.60;99.90;;;;;;5050672;28;20029;-67
2021/07/13 08:44:15;;;;;;;6.28;3.63;;;17.60;99.90;;;;;;5050019;28;20036;-67
2021/07/13 08:46:42;;;;;;;4.07;3.42;;;17.60;99.90;;;;;;5049079;28;20029;-67
2021/07/13 08:49:09;;;;;;;4.60;4.10;;;17.60;99.90;;;;;;5048626;28;20040;-67
2021/07/13 08:51:36;;;;;;;6.43;4.53;;;17.60;99.90;;;;;;5051932;28;20021;-67
2021/07/13 08:54:03;;;;;;;6.95;4.68;;;17.60;99.90;;;;;;5054601;28;20478;-67
2021/07/13 08:56:30;;;;;;;10.57;5.03;;;17.60;99.90;;;;;;5054248;28;20833;-67
2021/07/13 08:58:55;;;;;;;9.23;4.70;;;17.60;99.90;;;;;;5052000;28;20395;-67
2021/07/13 09:01:21;;;;;;;7.60;4.38;;;17.60;99.90;;;;;;5054334;28;20549;-67
2021/07/13 09:03:58;;;;;;;6.28;4.38;;;17.60;99.90;;;;;;5053838;28;20108;-67
2021/07/13 09:06:25;;;;;;;7.43;4.78;;;17.60;99.90;;;;;;5047625;28;20025;-67
2021/07/13 09:08:51;;;;;;;8.95;5.00;;;17.60;99.90;;;;;;5054935;28;20110;-67
2021/07/13 09:11:22;;;;;;;6.97;6.07;;;17.60;99.90;;;;;;5054284;28;20052;-67
2021/07/13 09:13:59;;;;;;;4.63;4.15;;;17.60;99.90;;;;;;5053185;28;20090;-67
2021/07/13 09:16:35;;;;;;;7.85;4.93;;;17.70;99.90;;;;;;5054175;28;20162;-68
2021/07/13 09:19:01;;;;;;;7.38;5.72;;;17.60;99.90;;;;;;5054252;28;20090;-67
2021/07/13 09:21:35;;;;;;;9.82;5.45;;;17.60;99.90;;;;;;5054075;28;20037;-67
2021/07/13 09:24:08;;;;;;;7.75;4.82;;;17.50;99.90;;;;;;5054518;28;20037;-67
2021/07/13 09:26:40;;;;;;;5.50;2.65;;;17.40;99.90;;;;;;5053113;28;20037;-68
2021/07/13 09:29:06;;;;;;;3.08;1.75;;;17.30;99.90;;;;;;5054063;28;20029;-70
2021/07/13 09:31:32;;;;;;;2.70;1.33;;;17.30;99.90;;;;;;5052944;28;20033;-67
2021/07/13 09:33:57;;;;;;;1.48;1.10;;;17.10;99.90;;;;;;5040114;28;20502;-67
2021/07/13 09:36:23;;;;;;;2.78;0.60;;;16.90;99.90;;;;;;5052919;28;20029;-67
2021/07/13 09:38:54;;;;;;;0.98;0.50;;;16.80;99.90;;;;;;5049640;28;20025;-68
2021/07/13 09:41:30;;;;;;;1.25;0.88;;;16.80;99.90;;;;;;5046976;28;20569;-67
2021/07/13 09:44:01;;;;;;;1.23;1.13;;;16.60;99.90;;;;;;5054803;28;20044;-67
2021/07/13 09:46:44;;;;;;;2.90;0.95;;;16.60;99.90;;;;;;5053690;28;20025;-67
2021/07/13 09:49:18;;;;;;;1.25;0.60;;;16.50;99.90;;;;;;5053115;28;20055;-67
2021/07/13 09:51:45;;;;;;;1.35;0.75;;;16.40;99.90;;;;;;5053290;28;20035;-67
2021/07/13 09:54:46;;;;;;;1.25;0.60;;;16.40;99.90;;;;;;5054410;28;20075;-67
2021/07/13 09:57:14;;;;;;;1.00;0.45;;;16.30;99.90;;;;;;5034396;28;20033;-67
2021/07/13 09:59:39;;;;;;;0.57;0.40;;;16.30;99.90;;;;;;5040940;28;20048;-67
2021/07/13 10:02:07;;;;;;;0.85;0.30;;;16.30;99.90;;;;;;5053284;28;20037;-67
2021/07/13 10:04:35;;;;;;;0.40;0.40;;;16.20;99.90;;;;;;5052763;28;20478;-67
2021/07/13 10:07:06;;;;;;;0.30;0.20;;;16.20;99.90;;;;;;5052782;28;20386;-67
2021/07/13 10:09:34;;;;;;;0.40;0.20;;;;;;;;;;5052703;28;20103;-67
2021/07/13 10:11:59;;;;;;;0.43;0.30;;;16.10;99.90;;;;;;5053613;28;20052;-67
2021/07/13 10:14:25;;;;;;;0.25;0.15;;;16.10;99.90;;;;;;5053854;28;20068;-67
2021/07/13 10:16:52;;;;;;;0.20;0.20;;;16.10;99.90;;;;;;5053015;28;20033;-67
2021/07/13 10:19:18;;;;;;;0.20;0.20;;;16.10;99.90;;;;;;5053450;28;20028;-67
2021/07/13 10:21:46;;;;;;;1.38;0.20;;;16.10;99.90;;;;;;5052840;28;20378;-67
2021/07/13 10:24:13;;;;;;;1.17;0.30;;;16.00;99.90;;;;;;5053815;28;20033;-67
2021/07/13 10:26:52;;;;;;;0.52;0.40;;;16.00;99.90;;;;;;5053052;28;20029;-67
2021/07/13 10:29:33;;;;;;;1.45;0.30;;;16.00;99.90;;;;;;5053209;28;20458;-67
2021/07/13 10:32:02;;;;;;;1.08;0.22;;;16.00;99.90;;;;;;5052495;28;20056;-67
2021/07/13 10:34:48;;;;;;;1.43;0.80;;;15.90;99.90;;;;;;5046848;28;20071;-67
2021/07/13 10:37:30;;;;;;;3.10;0.82;;;15.90;99.90;;;;;;5053071;28;20032;-67
2021/07/13 10:40:05;;;;;;;1.13;0.77;;;16.00;99.90;;;;;;5052052;28;20461;-67
2021/07/13 10:42:43;;;;;;;0.43;0.30;;;16.00;99.90;;;;;;5053195;28;20108;-67
2021/07/13 10:45:22;;;;;;;0.95;0.20;;;16.00;99.90;;;;;;5053120;28;20029;-66
2021/07/13 10:47:56;;;;;;;0.52;0.20;;;16.00;99.90;;;;;;5052702;28;20033;-66
2021/07/13 10:50:22;;;;;;;1.83;0.20;;;15.90;99.90;;;;;;5052935;28;20363;-66
2021/07/13 10:52:58;;;;;;;0.77;0.30;;;15.90;99.90;;;;;;5055565;28;20031;-67
2021/07/13 10:55:30;;;;;;;2.88;0.20;;;15.80;99.90;;;;;;5057966;28;20052;-66
2021/07/13 10:58:11;;;;;;;0.52;0.30;;;15.70;99.90;;;;;;5051945;28;20082;-67
2021/07/13 11:03:32;;;;;;;2.28;0.28;;;15.50;99.90;;;;;;5047291;28;20057;-67
2021/07/13 11:06:11;;;;;;;0.73;0.17;;;15.50;99.90;;;;;;5051431;28;20041;-68
2021/07/13 11:08:40;;;;;;;1.80;0.52;;;15.50;99.90;;;;;;5051409;28;20020;-67
2021/07/13 11:11:07;;;;;;;5.03;0.60;;;15.50;99.90;;;;;;5052366;28;20029;-67
2021/07/13 11:13:33;;;;;;;0.60;0.40;;;15.50;99.90;;;;;;5051249;28;20041;-67
2021/07/13 11:15:59;;;;;;;0.98;0.20;;;15.60;99.90;;;;;;5051138;28;20033;-67
2021/07/13 11:18:29;;;;;;;2.88;0.40;;;15.70;99.90;;;;;;5052383;28;20439;-67
2021/07/13 11:20:55;;;;;;;;;;;15.80;99.90;;;;;;5051025;28;20040;-67
2021/07/13 11:23:30;;;;;;;1.30;0.40;;;15.80;99.90;;;;;;5051900;28;19913;-67
2021/07/13 11:26:06;;;;;;;1.10;0.38;;;15.80;99.90;;;;;;5051214;28;20033;-67
2021/07/13 11:28:32;;;;;;;0.20;0.13;;;15.80;99.90;;;;;;5048684;28;20474;-67
2021/07/13 11:31:03;;;;;;;1.25;0.35;;;15.90;99.90;;;;;;5052066;28;20040;-67
2021/07/13 11:33:29;;;;;;;0.50;0.22;;;15.80;99.90;;;;;;5050881;28;20183;-67
2021/07/13 11:36:00;;;;;;;0.30;0.30;;;15.80;99.90;;;;;;5050709;28;20110;-67
2021/07/13 11:38:28;;;;;;;1.42;0.30;;;15.80;99.90;;;;;;5051762;28;20029;-67
2021/07/13 11:41:11;;;;;;;1.33;0.40;;;15.70;99.90;;;;;;5050537;28;20378;-67
2021/07/13 11:43:37;;;;;;;1.38;0.20;;;15.60;99.90;;;;;;5047382;28;20033;-68
2021/07/13 11:46:20;;;;;;;1.20;0.28;;;15.60;99.90;;;;;;5051551;28;20037;-68
2021/07/13 11:49:06;;;;;;;1.75;0.35;;;15.60;99.90;;;;;;5050837;28;20029;-68
2021/07/13 11:51:55;;;;;;;0.90;0.38;;;15.60;99.90;;;;;;5051362;28;20179;-67
2021/07/13 11:54:23;;;;;;;2.03;0.50;;;15.60;99.90;;;;;;5051386;28;20060;-68
2021/07/13 11:56:52;;;;;;;1.17;0.40;;;15.70;99.90;;;;;;5050003;28;20044;-68
2021/07/13 11:59:20;;;;;;;0.45;0.45;;;15.70;99.90;;;;;;5051422;28;20033;-67
2021/07/13 12:01:50;;;;;;;0.57;0.38;;;15.70;99.90;;;;;;5050268;28;20025;-67
2021/07/13 12:04:16;;;;;;;1.55;0.47;;;15.80;99.90;;;;;;5043824;28;20041;-67
2021/07/13 12:06:42;;;;;;;0.88;0.30;;;15.80;99.90;;;;;;5051762;28;20040;-67
2021/07/13 12:09:13;;;;;;;5.85;0.65;;;15.90;99.90;;;;;;5051283;28;20067;-67
2021/07/13 12:11:45;;;;;;;0.68;0.28;;;15.90;99.90;;;;;;5050751;28;20481;-68
2021/07/13 12:14:13;;;;;;;0.95;0.52;;;16.00;99.90;;;;;;5051238;28;20037;-67
2021/07/13 12:16:39;;;;;;;1.30;0.55;;;16.10;99.90;;;;;;5050427;28;20047;-67
2021/07/13 12:19:15;;;;;;;0.60;0.55;;;16.20;99.90;;;;;;5050923;28;20033;-67
2021/07/13 12:21:52;;;;;;;0.98;0.60;;;16.20;99.90;;;;;;5049825;28;20528;-67
2021/07/13 12:24:24;;;;;;;1.10;0.40;;;16.30;99.90;;;;;;5051036;28;20029;-67
2021/07/13 12:26:57;;;;;;;1.10;0.40;;;16.40;99.90;;;;;;5049411;28;20025;-67
2021/07/13 12:29:51;;;;;;;0.40;0.40;;;16.50;99.90;;;;;;5050779;28;20119;-67
2021/07/13 12:32:18;;;;;;;0.50;0.40;;;16.60;99.90;;;;;;5050560;28;20029;-68
2021/07/13 12:34:45;;;;;;;0.50;0.30;;;16.70;99.90;;;;;;5050148;28;20052;-68
2021/07/13 12:37:18;;;;;;;0.50;0.50;;;16.80;99.90;;;;;;5050791;28;20040;-67
2021/07/13 12:39:47;;;;;;;0.50;0.40;;;16.90;99.90;;;;;;5050639;28;20075;-67
2021/07/13 12:42:31;;;;;;;0.40;0.40;;;16.90;99.90;;;;;;5051490;28;20134;-68
2021/07/13 12:45:06;;;;;;;0.88;0.60;;;17.00;99.90;;;;;;5050308;28;20048;-67
2021/07/13 12:47:46;;;;;;;1.05;0.50;;;17.00;99.90;;;;;;5050476;28;20037;-67
2021/07/13 12:50:17;;;;;;;1.35;0.73;;;17.10;99.90;;;;;;5031549;28;20026;-67
2021/07/13 12:52:58;;;;;;;0.43;0.43;;;17.10;99.90;;;;;;5044472;28;20063;-68
2021/07/13 12:55:41;;;;;;;0.52;0.50;;;17.10;99.90;;;;;;5050528;28;20447;-67
2021/07/13 12:58:13;;;;;;;2.63;0.98;;;17.20;99.90;;;;;;5050455;28;20051;-67
2021/07/13 13:00:42;;;;;;;0.65;0.60;;;17.50;99.90;;;;;;5050708;28;20466;-67